Time;durP1;ratioP1;P1;durP2;ratioP2;P2;SDS_P1;SDS_P2;PMS_P1;PMS_P2;Temp;Humidity;BMP_temperature;BMP_pressure;BME280_temperature;BME280_humidity;BME280_pressure;Samples;Min_cycle;Max_cycle;Signal;HPM_P1;HPM_P2
2023/04/10 00:00:28;;;;;;;42.93;22.27;;;;;;;7.23;91.00;100991.91;4222808;28;21613;-66
2023/04/10 00:02:55;;;;;;;41.87;23.03;;;;;;;7.23;91.08;100994.59;4218401;28;20702;-63
2023/04/10 00:05:21;;;;;;;39.87;22.93;;;;;;;7.14;91.43;101001.50;4220707;28;23486;-65
2023/04/10 00:07:48;;;;;;;39.87;21.90;;;;;;;7.17;91.11;100990.50;4224512;28;20578;-63
2023/04/10 00:10:14;;;;;;;40.97;23.13;;;;;;;7.21;90.95;100991.16;4207848;28;22882;-62
2023/04/10 00:12:41;;;;;;;42.50;23.53;;;;;;;7.20;90.83;100993.00;4218182;28;20342;-64
2023/04/10 00:15:08;;;;;;;40.13;22.93;;;;;;;7.20;91.02;100987.63;4222002;28;20437;-64
2023/04/10 00:17:35;;;;;;;41.40;23.63;;;;;;;7.23;91.23;100981.13;4218206;28;20499;-64
2023/04/10 00:20:02;;;;;;;51.53;23.67;;;;;;;7.24;91.19;100991.78;4215309;28;21607;-64
2023/04/10 00:22:29;;;;;;;43.33;24.20;;;;;;;7.18;91.01;100988.66;4212903;28;20242;-67
2023/04/10 00:24:55;;;;;;;50.33;26.10;;;;;;;7.14;91.36;100983.53;4216767;28;26446;-65
2023/04/10 00:27:22;;;;;;;50.57;26.00;;;;;;;7.05;91.59;100986.03;4211528;28;20659;-69
2023/04/10 00:29:49;;;;;;;48.43;25.07;;;;;;;7.09;91.61;100993.78;4238378;28;20366;-63
2023/04/10 00:32:15;;;;;;;47.63;25.70;;;;;;;7.00;91.96;100986.38;4226459;28;20444;-66
2023/04/10 00:34:42;;;;;;;46.73;25.40;;;;;;;7.00;92.01;100993.56;4214702;28;20248;-65
2023/04/10 00:37:08;;;;;;;52.33;26.07;;;;;;;6.94;91.95;100984.13;4207253;28;20241;-65
2023/04/10 00:39:35;;;;;;;47.63;26.37;;;;;;;7.02;92.14;100986.25;4205082;28;26364;-65
2023/04/10 00:42:02;;;;;;;50.63;26.37;;;;;;;7.09;91.95;100988.41;4217299;28;20235;-66
2023/04/10 00:44:29;;;;;;;49.53;25.77;;;;;;;7.10;91.80;100995.47;4219313;28;20224;-64
2023/04/10 00:46:56;;;;;;;44.17;24.53;;;;;;;7.12;91.87;100987.31;4226140;28;20312;-62
2023/04/10 00:49:22;;;;;;;49.00;25.83;;;;;;;7.12;91.74;100987.31;4212810;28;20998;-65
2023/04/10 00:51:49;;;;;;;46.23;25.00;;;;;;;7.08;91.65;100986.69;4204209;28;22728;-65
2023/04/10 00:54:16;;;;;;;45.00;23.10;;;;;;;7.10;91.93;100992.78;4221851;28;20237;-67
2023/04/10 00:56:44;;;;;;;48.93;24.57;;;;;;;7.15;91.58;100992.44;4218161;28;23443;-65
2023/04/10 00:59:11;;;;;;;43.53;23.33;;;;;;;7.06;91.95;100987.75;4223179;28;20322;-62
2023/04/10 01:01:38;;;;;;;49.57;24.80;;;;;;;6.94;92.14;100984.13;4211312;28;20486;-65
2023/04/10 01:04:04;;;;;;;47.20;24.33;;;;;;;7.04;91.92;100987.84;4213569;28;20235;-65
2023/04/10 01:06:58;;;;;;;49.27;24.20;;;;;;;7.05;91.86;100986.03;4216556;28;20305;-63
2023/04/10 01:10:14;;;;;;;39.43;22.77;;;;;;;7.24;91.28;100988.25;4216550;28;20350;-63
2023/04/10 01:12:41;;;;;;;44.40;23.97;;;;;;;7.18;90.95;100999.44;4203781;28;20406;-64
2023/04/10 01:15:13;;;;;;;42.43;23.60;;;;;;;7.08;90.88;100994.75;4215990;28;21271;-66
2023/04/10 01:17:42;;;;;;;41.33;22.63;;;;;;;7.02;91.11;100988.94;4219671;28;20292;-67
2023/04/10 01:20:12;;;;;;;45.27;23.00;;;;;;;6.93;91.38;100990.47;4218203;28;25156;-63
2023/04/10 01:22:48;;;;;;;40.93;22.27;;;;;;;6.94;91.60;100993.03;4203391;28;22279;-64
2023/04/10 01:25:39;;;;;;;48.73;24.57;;;;;;;6.97;91.46;100998.22;4213204;28;23489;-65
2023/04/10 01:28:17;;;;;;;43.53;23.07;;;;;;;6.88;91.54;100995.28;4219179;28;20534;-67
2023/04/10 01:30:49;;;;;;;44.47;23.10;;;;;;;6.87;91.63;100993.59;4211423;28;21765;-64
2023/04/10 01:33:17;;;;;;;41.27;21.43;;;;;;;6.78;91.68;100995.09;4217707;28;20518;-65
2023/04/10 01:35:48;;;;;;;43.13;20.87;;;;;;;6.77;92.01;100990.69;4206910;28;20577;-63
2023/04/10 01:38:17;;;;;;;39.20;21.03;;;;;;;6.78;92.02;100989.72;4224521;28;22455;-63
2023/04/10 01:40:48;;;;;;;42.60;21.50;;;;;;;6.73;92.20;100971.22;4203891;28;20230;-65
2023/04/10 01:43:16;;;;;;;39.10;21.53;;;;;;;6.72;91.89;100988.31;4213195;28;20572;-65
2023/04/10 01:45:43;;;;;;;34.77;19.87;;;;;;;6.69;91.98;100991.25;4221160;28;23009;-65
2023/04/10 01:48:10;;;;;;;38.47;21.97;;;;;;;6.69;91.98;100987.66;4210057;28;21146;-63
2023/04/10 01:50:38;;;;;;;39.33;20.73;;;;;;;6.67;92.01;100987.78;4215688;28;20231;-64
2023/04/10 01:53:06;;;;;;;38.03;20.17;;;;;;;6.62;91.93;100988.13;4215617;28;20228;-64
2023/04/10 01:55:33;;;;;;;37.33;20.63;;;;;;;6.67;92.21;100987.78;4205602;28;20253;-64
2023/04/10 01:58:00;;;;;;;41.93;20.50;;;;;;;6.70;91.85;100994.78;4196093;28;21574;-64
2023/04/10 02:00:26;;;;;;;35.07;20.07;;;;;;;6.63;91.78;100986.31;4220801;28;20335;-66
2023/04/10 02:02:53;;;;;;;37.60;19.53;;;;;;;6.58;91.56;100991.13;4221433;28;25173;-65
2023/04/10 02:05:21;;;;;;;39.80;20.60;;;;;;;6.53;91.55;100998.66;4225330;28;20238;-65
2023/04/10 02:08:05;;;;;;;35.70;19.53;;;;;;;6.46;91.29;100990.16;4247364;28;20239;-64
2023/04/10 02:10:40;;;;;;;39.10;19.87;;;;;;;6.44;91.15;101000.19;4213892;28;22676;-64
2023/04/10 02:13:08;;;;;;;41.00;20.60;;;;;;;6.29;91.53;100997.59;4208695;28;20430;-67
2023/04/10 02:15:35;;;;;;;36.70;20.73;;;;;;;6.27;91.46;100993.28;4217297;28;21440;-63
2023/04/10 02:18:07;;;;;;;38.97;20.60;;;;;;;6.22;91.79;100995.41;4217288;28;20847;-63
2023/04/10 02:20:34;;;;;;;35.80;19.37;;;;;;;6.34;91.71;100990.06;4199105;28;20232;-67
2023/04/10 02:23:02;;;;;;;40.73;21.57;;;;;;;6.19;91.93;100989.28;4213374;28;24481;-65
2023/04/10 02:25:32;;;;;;;37.00;21.23;;;;;;;6.25;91.60;101005.97;4211945;28;20307;-65
2023/04/10 02:28:04;;;;;;;35.23;20.43;;;;;;;6.26;91.53;100999.63;4206710;28;22804;-66
2023/04/10 02:30:31;;;;;;;42.07;21.83;;;;;;;6.17;91.62;101001.97;4225397;28;20243;-64
2023/04/10 02:32:58;;;;;;;39.87;20.97;;;;;;;6.17;92.04;100999.28;4223141;28;20298;-64
2023/04/10 02:35:25;;;;;;;43.20;22.37;;;;;;;6.03;91.93;100994.84;4215083;28;22117;-63
2023/04/10 02:37:52;;;;;;;38.33;21.70;;;;;;;6.05;92.40;101007.31;4208875;28;21884;-62
2023/04/10 02:40:18;;;;;;;40.10;21.80;;;;;;;6.11;91.75;100999.72;4211632;28;20513;-66
2023/04/10 02:42:45;;;;;;;39.43;21.47;;;;;;;6.03;91.76;101000.22;4220433;28;21726;-63
2023/04/10 02:45:11;;;;;;;46.20;22.73;;;;;;;6.02;91.84;101001.19;4216321;28;20348;-63
2023/04/10 02:47:38;;;;;;;47.53;24.20;;;;;;;5.97;92.54;100999.72;4212450;28;20318;-64
2023/04/10 02:50:05;;;;;;;42.87;23.53;;;;;;;5.98;92.29;101001.47;4219492;28;21283;-63
2023/04/10 02:52:31;;;;;;;42.87;22.90;;;;;;;5.95;92.24;101001.69;4222131;28;20249;-64
2023/04/10 02:54:58;;;;;;;46.17;24.43;;;;;;;5.94;92.25;101002.66;4210846;28;22474;-67
2023/04/10 02:57:25;;;;;;;41.83;22.63;;;;;;;5.90;92.27;100990.38;4215255;28;21937;-63
2023/04/10 02:59:52;;;;;;;49.17;24.87;;;;;;;5.84;92.79;100991.66;4202580;28;23721;-66
2023/04/10 03:02:18;;;;;;;47.03;23.80;;;;;;;5.78;92.77;100997.44;4229442;28;21869;-65
2023/04/10 03:04:45;;;;;;;42.57;23.40;;;;;;;5.82;92.74;101002.50;4225363;28;20268;-66
2023/04/10 03:07:12;;;;;;;45.97;23.70;;;;;;;6.03;92.47;100991.31;4205414;28;20356;-67
2023/04/10 03:09:38;;;;;;;41.80;22.67;;;;;;;6.16;91.55;100988.63;4222938;28;20328;-64
2023/04/10 03:12:05;;;;;;;39.80;22.50;;;;;;;6.13;91.49;100996.91;4229648;28;22310;-64
2023/04/10 03:14:31;;;;;;;52.10;24.20;;;;;;;5.91;91.53;101001.03;4223474;28;20247;-65
2023/04/10 03:16:58;;;;;;;43.40;22.97;;;;;;;5.76;91.96;101000.22;4220565;28;20337;-65
2023/04/10 03:19:25;;;;;;;48.33;24.73;;;;;;;5.59;92.32;100995.13;4226853;28;20273;-64
2023/04/10 03:21:52;;;;;;;43.53;23.10;;;;;;;5.52;92.45;100991.97;4225695;28;21216;-64
2023/04/10 03:24:19;;;;;;;41.87;22.40;;;;;;;5.70;92.79;101000.63;4218248;28;20337;-64
2023/04/10 03:26:46;;;;;;;41.83;23.97;;;;;;;5.64;92.38;100985.78;4226085;28;21027;-65
2023/04/10 03:29:17;;;;;;;42.33;22.77;;;;;;;5.54;92.92;100984.69;4226025;28;20258;-64
2023/04/10 03:31:44;;;;;;;45.53;23.13;;;;;;;5.82;92.54;100994.44;4223699;28;20561;-66
2023/04/10 03:34:11;;;;;;;40.13;22.07;;;;;;;6.02;91.78;100982.38;4227714;28;20804;-64
2023/04/10 03:36:38;;;;;;;38.47;20.83;;;;;;;6.08;91.49;100980.25;4209628;28;20235;-62
2023/04/10 03:39:04;;;;;;;39.70;22.20;;;;;;;5.95;91.32;100989.09;4210492;28;21137;-64
2023/04/10 03:41:31;;;;;;;40.40;22.30;;;;;;;5.78;92.18;100989.38;4216509;28;20303;-63
2023/04/10 03:43:58;;;;;;;34.20;20.07;;;;;;;5.78;92.17;100984.00;4216198;28;20242;-66
2023/04/10 03:46:24;;;;;;;41.77;21.80;;;;;;;5.76;92.37;100984.09;4225561;28;20232;-65
2023/04/10 03:48:52;;;;;;;39.87;21.03;;;;;;;5.72;92.29;100985.28;4213403;28;20238;-64
2023/04/10 03:51:20;;;;;;;36.93;19.87;;;;;;;5.68;92.59;100992.69;4229733;28;20425;-62
2023/04/10 03:53:46;;;;;;;37.23;20.83;;;;;;;5.68;92.61;100987.31;4225766;28;20852;-66
2023/04/10 03:56:13;;;;;;;34.80;19.13;;;;;;;5.74;92.54;100990.53;4220935;28;20261;-63
2023/04/10 03:58:40;;;;;;;35.23;20.03;;;;;;;5.78;92.65;100994.75;4239452;28;22855;-63
2023/04/10 04:01:06;;;;;;;36.30;19.93;;;;;;;5.75;92.60;100995.81;4228692;28;20281;-64
2023/04/10 04:03:33;;;;;;;37.63;20.70;;;;;;;5.74;92.85;100999.44;4211208;28;20313;-65
2023/04/10 04:06:00;;;;;;;36.03;21.07;;;;;;;5.64;92.77;101004.56;4228882;28;20432;-64
2023/04/10 04:08:26;;;;;;;36.50;19.70;;;;;;;5.72;92.80;101004.94;4248715;28;20232;-66
2023/04/10 04:10:53;;;;;;;35.03;19.57;;;;;;;5.77;92.99;100996.56;4276655;28;20434;-64
2023/04/10 04:13:20;;;;;;;36.97;20.40;;;;;;;5.86;92.78;101008.50;4246312;28;20247;-64
2023/04/10 04:15:47;;;;;;;37.67;20.33;;;;;;;5.80;92.43;101011.63;4257610;28;20463;-66
2023/04/10 04:18:14;;;;;;;32.23;18.90;;;;;;;5.85;92.47;101012.19;4270169;28;20235;-64
2023/04/10 04:20:41;;;;;;;35.67;19.90;;;;;;;5.80;92.43;101009.81;4224551;28;20224;-64
2023/04/10 04:23:07;;;;;;;37.53;20.33;;;;;;;5.82;92.55;101015.91;4232231;28;20268;-63
2023/04/10 04:25:34;;;;;;;38.57;19.80;;;;;;;5.94;92.60;101013.41;4269360;28;21088;-63
2023/04/10 04:28:01;;;;;;;33.53;18.53;;;;;;;5.97;92.53;101018.53;4255309;28;20297;-65
2023/04/10 04:30:29;;;;;;;31.47;17.67;;;;;;;6.02;92.43;101030.75;4220279;28;20330;-65
2023/04/10 04:32:55;;;;;;;31.10;17.97;;;;;;;6.09;92.40;101033.00;4237453;28;20273;-66
2023/04/10 04:35:22;;;;;;;33.70;19.17;;;;;;;6.18;92.04;101033.28;4229795;28;21179;-66
2023/04/10 04:37:48;;;;;;;33.03;18.57;;;;;;;6.19;92.03;101034.13;4236242;28;20417;-67
2023/04/10 04:40:15;;;;;;;37.77;19.67;;;;;;;6.26;91.80;101034.59;4231063;28;20366;-67
2023/04/10 04:42:42;;;;;;;36.23;19.93;;;;;;;6.26;91.89;101026.50;4223357;28;21775;-63
2023/04/10 04:45:09;;;;;;;37.67;19.93;;;;;;;6.33;91.87;101031.34;4234742;28;20307;-64
2023/04/10 04:47:35;;;;;;;37.97;20.03;;;;;;;6.37;91.83;101037.38;4213408;28;20268;-65
2023/04/10 04:50:03;;;;;;;38.17;19.50;;;;;;;6.33;91.89;101039.41;4225847;28;20238;-63
2023/04/10 04:52:31;;;;;;;36.43;20.47;;;;;;;6.34;92.30;101040.31;4221797;28;20243;-64
2023/04/10 04:54:57;;;;;;;33.13;20.03;;;;;;;6.55;91.53;101032.56;4212505;28;25179;-64
2023/04/10 04:57:24;;;;;;;35.60;19.83;;;;;;;6.49;91.57;101041.06;4226527;28;20753;-65
2023/04/10 04:59:50;;;;;;;33.23;20.20;;;;;;;6.60;91.81;101043.88;4210058;28;20453;-65
2023/04/10 05:02:17;;;;;;;36.60;21.13;;;;;;;6.58;91.53;101042.22;4227417;28;20304;-63
2023/04/10 05:04:44;;;;;;;40.70;23.20;;;;;;;6.57;91.64;101044.06;4229835;28;20670;-66
2023/04/10 05:07:11;;;;;;;39.67;20.43;;;;;;;6.69;91.56;101049.56;4226266;28;20241;-64
2023/04/10 05:09:37;;;;;;;37.70;21.10;;;;;;;6.73;91.05;101048.38;4214187;28;20234;-65
2023/04/10 05:12:04;;;;;;;38.17;21.40;;;;;;;6.85;90.81;101050.22;4217476;28;20234;-65
2023/04/10 05:14:31;;;;;;;33.40;19.73;;;;;;;6.91;91.10;101054.31;4212700;28;20245;-63
2023/04/10 05:16:58;;;;;;;32.80;19.10;;;;;;;6.97;90.69;101038.59;4215992;28;20236;-64
2023/04/10 05:19:28;;;;;;;32.97;18.10;;;;;;;7.12;90.64;101051.94;4217948;28;20304;-64
2023/04/10 05:21:55;;;;;;;34.53;20.07;;;;;;;7.15;90.61;101051.69;4223441;28;21804;-65
2023/04/10 05:24:21;;;;;;;36.10;20.60;;;;;;;7.20;90.66;101049.53;4227561;28;20688;-63
2023/04/10 05:26:48;;;;;;;34.20;19.60;;;;;;;7.18;90.29;101056.00;4237162;28;20303;-64
2023/04/10 05:29:14;;;;;;;29.33;17.03;;;;;;;7.33;90.84;101060.28;4213593;28;20237;-64
2023/04/10 05:31:41;;;;;;;30.47;18.60;;;;;;;7.50;90.10;101053.69;4215188;28;20394;-64
2023/04/10 05:34:08;;;;;;;30.40;17.63;;;;;;;7.51;89.83;101057.22;4229105;28;20259;-65
2023/04/10 05:36:35;;;;;;;29.43;17.10;;;;;;;7.54;89.90;101049.78;4225324;28;20651;-65
2023/04/10 05:39:03;;;;;;;31.23;17.60;;;;;;;7.76;89.53;101059.84;4211064;28;20269;-64
2023/04/10 05:41:29;;;;;;;26.77;16.80;;;;;;;7.90;88.97;101058.78;4221852;28;21511;-66
2023/04/10 05:43:56;;;;;;;28.87;16.43;;;;;;;7.98;88.62;101060.94;4215239;28;20679;-65
2023/04/10 05:46:22;;;;;;;30.37;16.57;;;;;;;7.99;88.41;101065.34;4216443;28;20395;-66
2023/04/10 05:48:49;;;;;;;28.57;17.10;;;;;;;8.13;87.70;101058.03;4201830;28;20859;-66
2023/04/10 05:51:16;;;;;;;26.87;17.00;;;;;;;8.14;87.75;101066.00;4243807;28;21199;-66
2023/04/10 05:53:43;;;;;;;29.20;16.43;;;;;;;8.33;87.90;101067.31;4238330;28;20231;-66
2023/04/10 05:56:10;;;;;;;26.50;15.87;;;;;;;8.23;87.35;101057.22;4231447;28;21232;-65
2023/04/10 05:58:37;;;;;;;29.23;16.33;;;;;;;8.34;87.75;101072.59;4239926;28;20231;-63
2023/04/10 06:01:04;;;;;;;24.80;14.90;;;;;;;8.66;86.61;101061.19;4224683;28;20337;-65
2023/04/10 06:03:30;;;;;;;26.87;14.87;;;;;;;8.84;85.50;101064.28;4212355;28;20227;-63
2023/04/10 06:05:59;;;;;;;24.93;15.37;;;;;;;8.97;85.08;101064.19;4254145;28;20239;-64
2023/04/10 06:08:26;;;;;;;26.70;15.30;;;;;;;8.70;85.15;101061.81;4223562;28;20235;-63
2023/04/10 06:10:53;;;;;;;25.00;14.60;;;;;;;8.85;84.90;101067.84;4242252;28;21536;-63
2023/04/10 06:13:20;;;;;;;23.10;14.10;;;;;;;9.00;85.06;101060.38;4227174;28;22064;-66
2023/04/10 06:15:47;;;;;;;25.83;14.43;;;;;;;9.05;84.46;101066.25;4205154;28;20668;-67
2023/04/10 06:18:14;;;;;;;22.80;13.73;;;;;;;9.20;84.25;101067.72;4225299;28;20240;-62
2023/04/10 06:20:40;;;;;;;19.47;13.10;;;;;;;9.27;83.65;101072.63;4229203;28;20235;-64
2023/04/10 06:23:07;;;;;;;28.63;15.00;;;;;;;9.55;83.49;101071.28;4235053;28;21123;-66
2023/04/10 06:25:34;;;;;;;23.20;14.30;;;;;;;9.32;84.11;101078.56;4246850;28;24608;-62
2023/04/10 06:28:01;;;;;;;23.77;15.30;;;;;;;9.56;82.81;101070.28;4273621;28;20242;-64
2023/04/10 06:30:29;;;;;;;22.67;14.10;;;;;;;9.65;83.12;101068.66;4234283;28;20341;-66
2023/04/10 06:32:56;;;;;;;24.03;14.47;;;;;;;9.75;82.46;101072.34;4238640;28;20263;-62
2023/04/10 06:35:23;;;;;;;21.20;12.57;;;;;;;9.86;81.83;101068.75;4218646;28;20911;-65
2023/04/10 06:37:50;;;;;;;24.93;13.23;;;;;;;9.95;82.20;101075.22;4248040;28;20537;-65
2023/04/10 06:40:16;;;;;;;24.10;13.47;;;;;;;9.85;82.17;101072.44;4233582;28;20861;-65
2023/04/10 06:42:43;;;;;;;24.53;13.40;;;;;;;9.80;82.44;101078.22;4242657;28;20252;-63
2023/04/10 06:45:10;;;;;;;19.83;11.13;;;;;;;10.17;81.04;101078.84;4209318;28;23056;-63
2023/04/10 06:47:37;;;;;;;18.63;10.63;;;;;;;10.36;78.31;101068.19;4225512;28;20347;-66
2023/04/10 06:50:04;;;;;;;18.10;10.27;;;;;;;10.55;77.64;101074.75;4226858;28;20284;-63
2023/04/10 06:52:31;;;;;;;18.87;10.63;;;;;;;10.66;78.03;101073.84;4228180;28;20861;-68
2023/04/10 06:54:58;;;;;;;22.30;12.37;;;;;;;11.17;76.79;101075.72;4224630;28;20378;-66
2023/04/10 06:57:25;;;;;;;13.80;8.20;;;;;;;13.13;69.65;101077.69;4235993;28;20242;-67
2023/04/10 06:59:51;;;;;;;15.10;8.17;;;;;;;14.70;62.94;101077.56;4256588;28;22647;-64
2023/04/10 07:02:18;;;;;;;11.83;6.93;;;;;;;15.78;59.68;101075.41;4236710;28;21220;-64
2023/04/10 07:04:45;;;;;;;12.80;7.93;;;;;;;16.68;56.21;101079.31;4198020;28;20891;-66
2023/04/10 07:07:12;;;;;;;11.80;7.20;;;;;;;18.26;52.35;101072.22;4220889;28;20277;-66
2023/04/10 07:09:40;;;;;;;25.00;11.53;;;;;;;20.36;46.83;101082.19;4233397;28;20279;-65
2023/04/10 07:12:07;;;;;;;10.87;6.23;;;;;;;20.59;44.89;101067.38;4237005;28;20250;-64
2023/04/10 07:14:34;;;;;;;12.73;6.63;;;;;;;19.66;46.69;101078.22;4232256;28;20235;-68
2023/04/10 07:17:01;;;;;;;13.47;6.33;;;;;;;21.47;42.92;101064.19;4230380;28;20348;-67
2023/04/10 07:19:30;;;;;;;9.50;5.87;;;;;;;22.13;41.30;101072.94;4260683;28;22622;-67
2023/04/10 07:21:56;;;;;;;11.20;5.60;;;;;;;22.31;40.14;101066.81;4247922;28;20236;-65
2023/04/10 07:24:23;;;;;;;12.47;6.30;;;;;;;21.61;41.60;101070.63;4222740;28;20315;-66
2023/04/10 07:26:50;;;;;;;9.47;5.90;;;;;;;22.75;39.60;101076.41;4222492;28;20912;-65
2023/04/10 07:29:17;;;;;;;9.53;6.20;;;;;;;22.49;39.57;101069.00;4245465;28;21186;-72
2023/04/10 07:31:44;;;;;;;10.00;5.90;;;;;;;21.45;41.78;101073.72;4224094;28;21992;-64
2023/04/10 07:34:11;;;;;;;11.40;6.77;;;;;;;21.21;43.37;101078.66;4211176;28;20238;-62
2023/04/10 07:36:37;;;;;;;15.50;7.30;;;;;;;22.22;41.04;101081.84;4245000;28;20231;-62
2023/04/10 07:39:04;;;;;;;11.77;7.00;;;;;;;22.08;40.51;101076.31;4256711;28;22404;-64
2023/04/10 07:41:31;;;;;;;11.23;7.00;;;;;;;22.13;41.21;101079.28;4255885;28;20240;-63
2023/04/10 07:43:58;;;;;;;11.67;6.60;;;;;;;21.91;41.47;101075.00;4284673;28;20344;-65
2023/04/10 07:46:26;;;;;;;14.07;6.73;;;;;;;21.39;42.24;101080.88;4286672;28;20233;-63
2023/04/10 07:48:54;;;;;;;11.00;6.70;;;;;;;22.26;40.30;101088.66;4304306;28;20612;-64
2023/04/10 07:51:21;;;;;;;9.67;6.00;;;;;;;23.03;39.21;101085.53;4298346;28;20235;-63
2023/04/10 07:53:48;;;;;;;10.63;6.83;;;;;;;24.10;36.73;101087.13;4258590;28;20573;-62
2023/04/10 07:56:19;;;;;;;13.23;7.27;;;;;;;24.70;36.13;101089.47;4239894;28;21527;-64
2023/04/10 07:58:46;;;;;;;11.97;6.77;;;;;;;22.91;38.89;101080.66;4245748;28;20276;-64
2023/04/10 08:01:13;;;;;;;12.30;7.40;;;;;;;22.22;39.91;101081.84;4280441;28;20286;-64
2023/04/10 08:03:42;;;;;;;11.57;7.20;;;;;;;21.74;41.01;101080.88;4275792;28;20328;-64
2023/04/10 08:06:10;;;;;;;11.50;7.03;;;;;;;21.63;41.57;101079.53;4218091;28;20240;-63
2023/04/10 08:08:38;;;;;;;12.47;7.43;;;;;;;22.02;41.01;101076.28;4225857;28;20236;-63
2023/04/10 08:11:27;;;;;;;11.57;7.47;;;;;;;20.54;44.08;101078.97;4218251;28;20309;-64
2023/04/10 08:13:55;;;;;;;13.53;6.83;;;;;;;20.23;45.00;101080.16;4260115;28;20231;-62
2023/04/10 08:16:23;;;;;;;12.07;7.10;;;;;;;20.23;44.76;101079.31;4241816;28;20273;-64
2023/04/10 08:18:51;;;;;;;14.40;6.73;;;;;;;18.42;49.14;101085.81;4256247;28;20771;-63
2023/04/10 08:21:20;;;;;;;16.47;7.87;;;;;;;18.01;50.13;101073.22;4205184;28;20537;-64
2023/04/10 08:23:52;;;;;;;11.23;6.47;;;;;;;17.68;51.16;101069.78;4249413;28;22322;-63
2023/04/10 08:26:20;;;;;;;12.10;7.00;;;;;;;16.91;52.77;101076.69;4241337;28;21107;-62
2023/04/10 08:28:50;;;;;;;9.93;6.60;;;;;;;17.00;53.05;101072.09;4231012;28;20240;-63
2023/04/10 08:31:17;;;;;;;10.17;6.60;;;;;;;17.68;51.99;101067.94;4215173;28;22080;-64
2023/04/10 08:33:44;;;;;;;12.67;6.77;;;;;;;16.91;54.40;101069.38;4245788;28;20235;-64
2023/04/10 08:36:14;;;;;;;11.77;6.47;;;;;;;17.34;52.96;101069.09;4237281;28;21813;-62
2023/04/10 08:38:44;;;;;;;11.27;6.57;;;;;;;17.21;52.84;101066.94;4233968;28;20409;-63
2023/04/10 08:41:20;;;;;;;10.97;6.40;;;;;;;17.42;53.29;101063.56;4230570;28;20864;-63
2023/04/10 08:43:48;;;;;;;10.50;5.70;;;;;;;18.13;50.76;101064.59;4240047;28;25288;-63
2023/04/10 08:46:15;;;;;;;8.80;5.00;;;;;;;18.26;49.42;101066.75;4277008;28;20281;-67
2023/04/10 08:48:59;;;;;;;9.87;5.23;;;;;;;17.43;51.45;101064.44;4224927;28;20646;-64
2023/04/10 08:51:38;;;;;;;13.93;5.43;;;;;;;17.09;53.16;101060.97;4211574;28;21110;-64
2023/04/10 08:54:07;;;;;;;11.17;4.97;;;;;;;17.35;50.65;101061.75;4242711;28;20255;-63
2023/04/10 08:56:35;;;;;;;8.07;4.73;;;;;;;17.31;51.33;101060.38;4279840;28;21776;-65
2023/04/10 08:59:02;;;;;;;11.67;5.03;;;;;;;17.35;51.15;101065.31;4252022;28;20235;-66
2023/04/10 09:01:30;;;;;;;7.60;4.93;;;;;;;17.34;51.39;101063.59;4223733;28;20992;-65
2023/04/10 09:03:57;;;;;;;9.00;4.70;;;;;;;17.00;51.50;101064.75;4234775;28;20231;-66
2023/04/10 09:06:44;;;;;;;8.77;4.40;;;;;;;17.09;51.80;101055.50;4253031;28;20250;-66
2023/04/10 09:09:11;;;;;;;7.37;4.10;;;;;;;16.93;51.02;101047.34;4239918;28;21538;-65
2023/04/10 09:11:59;;;;;;;8.27;4.27;;;;;;;16.51;51.99;101062.91;4286927;28;20500;-64
2023/04/10 09:14:32;;;;;;;10.57;4.20;;;;;;;16.14;53.63;101048.69;4248208;28;20242;-67
2023/04/10 09:17:15;;;;;;;8.77;4.70;;;;;;;16.09;54.09;101044.75;4241697;28;20277;-65
2023/04/10 09:19:46;;;;;;;7.90;4.20;;;;;;;16.19;53.11;101040.00;4222796;28;21750;-65
2023/04/10 09:22:14;;;;;;;9.97;4.23;;;;;;;16.27;53.46;101047.38;4248181;28;21821;-66
2023/04/10 09:24:42;;;;;;;7.43;3.77;;;;;;;16.34;52.70;101050.25;4237963;28;20247;-66
2023/04/10 09:27:09;;;;;;;8.97;3.83;;;;;;;16.27;53.02;101042.75;4214314;28;20240;-69
2023/04/10 09:29:44;;;;;;;7.50;4.70;;;;;;;16.24;53.14;101037.59;4224988;28;20235;-67
2023/04/10 09:32:11;;;;;;;9.47;4.23;;;;;;;16.13;53.78;101030.59;4231772;28;20850;-68
2023/04/10 09:34:55;;;;;;;7.57;4.20;;;;;;;15.91;53.92;101026.66;4222655;28;20265;-66
2023/04/10 09:37:30;;;;;;;6.40;3.60;;;;;;;16.51;53.19;101032.84;4228733;28;20224;-65
2023/04/10 09:39:56;;;;;;;9.20;3.90;;;;;;;16.97;51.87;101021.31;4214490;28;21752;-63
2023/04/10 09:42:37;;;;;;;11.80;4.40;;;;;;;17.15;51.44;101023.84;4236716;28;20235;-64
2023/04/10 09:45:04;;;;;;;8.43;3.77;;;;;;;16.89;51.07;101016.72;4228862;28;23643;-68
2023/04/10 09:47:31;;;;;;;8.23;4.07;;;;;;;16.40;51.92;101022.25;4223896;28;20408;-62
2023/04/10 09:49:59;;;;;;;5.40;3.90;;;;;;;16.15;52.37;101017.63;4231207;28;20337;-67
2023/04/10 09:52:29;;;;;;;7.27;3.83;;;;;;;16.11;53.89;101018.16;4243653;28;20707;-66
2023/04/10 09:55:01;;;;;;;7.90;3.73;;;;;;;16.21;53.33;101012.50;4235689;28;20244;-69
2023/04/10 09:57:29;;;;;;;7.83;3.70;;;;;;;16.27;52.88;101015.41;4205079;28;20237;-65
2023/04/10 09:59:58;;;;;;;7.93;4.00;;;;;;;16.77;51.07;101005.28;4231452;28;20340;-66
2023/04/10 10:02:28;;;;;;;6.40;3.63;;;;;;;16.98;49.87;101003.88;4228847;28;22689;-63
2023/04/10 10:04:59;;;;;;;17.43;4.10;;;;;;;17.20;49.72;100995.94;4237541;28;20227;-68
2023/04/10 10:07:26;;;;;;;4.97;3.20;;;;;;;16.87;51.40;100996.88;4212808;28;20241;-66
2023/04/10 10:09:53;;;;;;;7.67;3.60;;;;;;;17.16;50.18;100997.34;4225145;28;20239;-66
2023/04/10 10:12:33;;;;;;;6.77;3.33;;;;;;;16.87;49.76;101002.34;4240834;28;25426;-66
2023/04/10 10:15:22;;;;;;;7.43;3.17;;;;;;;16.88;49.83;100993.13;4222274;28;20394;-65
2023/04/10 10:17:52;;;;;;;5.37;3.30;;;;;;;17.26;50.55;100987.88;4249716;28;20321;-67
2023/04/10 10:20:21;;;;;;;8.17;3.40;;;;;;;17.01;51.00;100989.00;4235908;28;20397;-65
2023/04/10 10:22:49;;;;;;;8.70;3.67;;;;;;;17.58;49.94;100983.28;4229256;28;20766;-64
2023/04/10 10:25:18;;;;;;;9.77;3.60;;;;;;;17.19;49.13;100975.97;4222056;28;23021;-64
2023/04/10 10:27:45;;;;;;;6.83;3.60;;;;;;;17.54;49.87;100979.19;4207887;28;20246;-66
2023/04/10 10:30:12;;;;;;;8.27;3.63;;;;;;;17.56;48.38;100977.13;4230507;28;20385;-67
2023/04/10 10:32:55;;;;;;;5.87;3.13;;;;;;;17.56;49.09;100976.28;4220523;28;20316;-65
2023/04/10 10:35:22;;;;;;;7.07;4.03;;;;;;;17.40;48.66;100967.13;4235460;28;21054;-64
2023/04/10 10:37:52;;;;;;;6.67;3.27;;;;;;;17.37;49.08;100966.66;4229447;28;20409;-76
2023/04/10 10:40:26;;;;;;;9.57;3.83;;;;;;;17.62;48.17;100963.75;4238394;28;20230;-69
2023/04/10 10:43:00;;;;;;;8.07;4.03;;;;;;;17.28;48.68;100957.59;4230045;28;20231;-65
2023/04/10 10:45:33;;;;;;;11.20;4.33;;;;;;;16.71;50.16;100962.25;4205230;28;20231;-65
2023/04/10 10:48:00;;;;;;;7.33;3.73;;;;;;;16.57;50.10;100955.63;4235043;28;21870;-64
2023/04/10 10:50:52;;;;;;;7.67;3.47;;;;;;;16.67;48.60;100965.50;4249129;28;20238;-64
2023/04/10 10:53:41;;;;;;;7.23;3.40;;;;;;;16.57;47.82;100966.53;4198622;28;21665;-64
2023/04/10 10:56:22;;;;;;;6.80;3.00;;;;;;;16.82;47.75;100960.16;4239764;28;20253;-65
2023/04/10 10:58:54;;;;;;;5.43;2.60;;;;;;;17.08;47.38;100957.19;4226226;28;20601;-66
2023/04/10 11:01:22;;;;;;;8.13;3.20;;;;;;;17.25;47.11;100950.63;4243285;28;20309;-66
2023/04/10 11:03:49;;;;;;;8.90;2.73;;;;;;;16.94;47.31;100959.63;4222900;28;20228;-65
2023/04/10 11:06:18;;;;;;;5.97;2.90;;;;;;;16.97;47.37;100946.66;4262837;28;26231;-63
2023/04/10 11:08:46;;;;;;;6.17;2.77;;;;;;;16.91;47.52;100954.50;4231482;28;22165;-64
2023/04/10 11:11:22;;;;;;;7.10;2.53;;;;;;;17.05;46.01;100958.41;4198433;28;20623;-64
2023/04/10 11:13:50;;;;;;;6.03;2.40;;;;;;;17.12;45.33;100944.88;4217289;28;24693;-65
2023/04/10 11:16:21;;;;;;;5.30;2.50;;;;;;;17.54;45.31;100942.75;4231250;28;22344;-65
2023/04/10 11:18:48;;;;;;;5.50;2.67;;;;;;;17.86;45.18;100938.94;4227067;28;20674;-65
2023/04/10 11:21:36;;;;;;;6.17;2.80;;;;;;;17.62;45.07;100929.03;4247176;28;20333;-65
2023/04/10 11:24:04;;;;;;;5.60;2.50;;;;;;;17.31;45.21;100932.63;4234568;28;21173;-62
2023/04/10 11:26:42;;;;;;;6.30;2.80;;;;;;;17.38;43.53;100922.66;4236624;28;23338;-65